Terminal Aerodrome Forecast
Issued by NWS Denver/Boulder, CO

Home | Current Version | Previous Version | Text Only | Print | Product List | Glossary On
Versions: 1 2 3 4 5 6 7 8 9 10 11 12 13 14 15 16 17 18 19 20 21 22 23 24 25 26 27 28 29 30 31 32 33 34 35 36 37 38 39 40 41 42 43
000
FTUS45 KBOU 232110 AAB
TAFDEN
TAF AMD
KDEN 232110Z 2321/2424 22014G20KT P6SM FEW120 SCT140 BKN200
      TEMPO 2323/2403 32020G30KT
     FM240300 27008KT P6SM FEW090 BKN140
     FM240600 24010KT P6SM SCT140 BKN200
     FM241500 21010KT P6SM FEW140 BKN200
     FM242000 11010KT P6SM FEW140 SCT220=

USA.gov is the U.S. government's official web portal to all federal, state and local government web resources and services.